createdAt,value
2023-05-23T00:02:30.840Z,101415.63
2023-05-23T00:05:34.412Z,101414.47
2023-05-23T00:08:39.334Z,101415.28
2023-05-23T00:11:45.368Z,101417.88
2023-05-23T00:14:49.586Z,101412.81
2023-05-23T00:17:53.208Z,101410.38
2023-05-23T00:20:57.511Z,101410.25
2023-05-23T00:24:04.676Z,101413.91
2023-05-23T00:27:08.223Z,101397.44
2023-05-23T00:30:12.789Z,101402.06
2023-05-23T00:33:16.388Z,101399.38
2023-05-23T00:36:19.981Z,101405.81
2023-05-23T00:39:25.297Z,101404.31
2023-05-23T00:42:28.803Z,101403.31
2023-05-23T00:45:32.370Z,101411.91
2023-05-23T00:48:38.444Z,101404.31
2023-05-23T00:51:43.333Z,101410.44
2023-05-23T00:54:48.423Z,101404.31
2023-05-23T00:57:55.814Z,101407.88
2023-05-23T01:01:00.018Z,101401.75
2023-05-23T01:04:04.781Z,101402.13
2023-05-23T01:07:08.545Z,101392.63
2023-05-23T01:10:14.880Z,101387.78
2023-05-23T01:13:30.042Z,101388.56
2023-05-23T01:16:48.959Z,101372.59
2023-05-23T01:20:10.073Z,101373.09
2023-05-23T01:23:55.828Z,101360.31
2023-05-23T01:27:20.502Z,101361.03
2023-05-23T01:30:28.357Z,101360.44
2023-05-23T01:33:34.925Z,101360.38
2023-05-23T01:36:43.677Z,101351.72
2023-05-23T01:39:47.343Z,101355.28
2023-05-23T01:42:51.642Z,101368.78
2023-05-23T01:45:58.654Z,101360.00
2023-05-23T01:49:04.923Z,101365.94
2023-05-23T01:52:10.615Z,101360.78
2023-05-23T01:55:22.810Z,101361.91
2023-05-23T01:58:26.620Z,101364.53
2023-05-23T02:01:31.806Z,101364.28
2023-05-23T02:04:37.368Z,101362.69
2023-05-23T02:07:41.109Z,101373.13
2023-05-23T02:10:44.648Z,101372.81
2023-05-23T02:13:48.228Z,101385.09
2023-05-23T02:16:54.057Z,101383.50
2023-05-23T02:19:57.925Z,101379.94
2023-05-23T02:23:01.492Z,101385.16
2023-05-23T02:26:05.056Z,101378.16
2023-05-23T02:29:08.809Z,101381.59
2023-05-23T02:32:13.752Z,101384.34
2023-05-23T02:35:17.454Z,101386.00
2023-05-23T02:38:21.091Z,101384.97
2023-05-23T02:41:24.693Z,101380.06
2023-05-23T02:44:28.294Z,101375.59
2023-05-23T02:47:33.256Z,101367.78
2023-05-23T02:50:36.722Z,101367.75
2023-05-23T02:53:40.456Z,101363.50
2023-05-23T02:56:44.108Z,101369.63
2023-05-23T02:59:47.627Z,101367.41
2023-05-23T03:02:52.873Z,101363.75
2023-05-23T03:05:56.581Z,101372.50
2023-05-23T03:09:00.224Z,101364.53
2023-05-23T03:12:03.732Z,101365.69
2023-05-23T03:15:08.608Z,101365.69
2023-05-23T03:18:13.616Z,101366.53
2023-05-23T03:21:17.404Z,101369.41
2023-05-23T03:24:20.925Z,101369.41
2023-05-23T03:27:24.409Z,101372.06
2023-05-23T03:30:28.084Z,101375.66
2023-05-23T03:33:32.905Z,101370.56
2023-05-23T03:36:39.308Z,101374.88
2023-05-23T03:39:42.841Z,101384.13
2023-05-23T03:42:46.421Z,101383.22
2023-05-23T03:45:50.135Z,101387.22
2023-05-23T03:48:55.127Z,101386.53
2023-05-23T03:51:58.618Z,101390.88
2023-05-23T03:55:02.336Z,101396.19
2023-05-23T03:58:06.298Z,101391.81
2023-05-23T04:01:10.796Z,101396.25
2023-05-23T04:04:17.310Z,101397.16
2023-05-23T04:07:20.933Z,101403.81
2023-05-23T04:10:24.738Z,101402.44
2023-05-23T04:13:28.479Z,101406.97
2023-05-23T04:16:33.346Z,101407.47
2023-05-23T04:19:38.714Z,101415.19
2023-05-23T04:22:42.401Z,101407.34
2023-05-23T04:25:46.136Z,101410.84
2023-05-23T04:28:50.247Z,101414.50
2023-05-23T04:31:55.021Z,101411.75
2023-05-23T04:35:02.258Z,101426.13
2023-05-23T04:38:06.140Z,101431.47
2023-05-23T04:41:10.756Z,101433.13
2023-05-23T04:44:15.041Z,101433.06
2023-05-23T04:47:19.151Z,101428.69
2023-05-23T04:50:24.192Z,101438.41
2023-05-23T04:53:27.792Z,101435.75
2023-05-23T04:56:31.496Z,101437.63
2023-05-23T04:59:35.052Z,101438.28
2023-05-23T05:02:39.134Z,101438.47
2023-05-23T05:05:44.309Z,101444.75
2023-05-23T05:08:47.860Z,101453.00
2023-05-23T05:11:51.444Z,101447.84
2023-05-23T05:14:55.132Z,101458.56
2023-05-23T05:17:58.764Z,101459.22
2023-05-23T05:21:03.745Z,101463.38
2023-05-23T05:24:09.714Z,101467.75
2023-05-23T05:27:13.828Z,101474.75
2023-05-23T05:30:17.676Z,101475.94
2023-05-23T05:33:23.709Z,101476.59
2023-05-23T05:36:28.663Z,101486.50
2023-05-23T05:39:32.237Z,101488.31
2023-05-23T05:42:36.015Z,101498.03
2023-05-23T05:45:40.116Z,101500.88
2023-05-23T05:48:43.632Z,101494.66
2023-05-23T05:51:48.505Z,101505.88
2023-05-23T05:54:52.108Z,101507.09
2023-05-23T05:57:55.699Z,101500.75
2023-05-23T06:00:59.921Z,101523.22
2023-05-23T06:04:03.587Z,101519.78
2023-05-23T06:07:08.733Z,101510.09
2023-05-23T06:10:13.986Z,101524.34
2023-05-23T06:13:17.885Z,101518.19
2023-05-23T06:16:21.571Z,101541.03
2023-05-23T06:19:25.369Z,101534.28
2023-05-23T06:22:30.686Z,101539.50
2023-05-23T06:25:34.455Z,101545.66
2023-05-23T06:28:39.806Z,101545.66
2023-05-23T06:31:43.516Z,101549.19
2023-05-23T06:34:47.167Z,101554.63
2023-05-23T06:37:52.164Z,101572.09
2023-05-23T06:40:55.718Z,101571.16
2023-05-23T06:43:59.340Z,101577.50
2023-05-23T06:47:02.858Z,101570.41
2023-05-23T06:50:07.689Z,101588.09
2023-05-23T06:53:12.771Z,101592.69
2023-05-23T06:56:17.299Z,101591.63
2023-05-23T06:59:21.555Z,101586.63
2023-05-23T07:02:25.814Z,101605.84
2023-05-23T07:05:29.675Z,101619.81
2023-05-23T07:08:34.957Z,101610.94
2023-05-23T07:11:39.586Z,101626.88
2023-05-23T07:14:43.124Z,101630.59
2023-05-23T07:17:46.787Z,101628.56
2023-05-23T07:20:51.161Z,101631.13
2023-05-23T07:23:56.099Z,101637.66
2023-05-23T07:26:59.657Z,101638.66
2023-05-23T07:30:05.257Z,101648.69
2023-05-23T07:33:08.863Z,101642.75
2023-05-23T07:36:12.824Z,101648.78
2023-05-23T07:39:22.165Z,101654.75
2023-05-23T07:42:25.757Z,101663.50
2023-05-23T07:45:29.532Z,101668.19
2023-05-23T07:48:33.181Z,101663.03
2023-05-23T07:51:37.204Z,101671.16
2023-05-23T07:54:42.777Z,101684.59
2023-05-23T07:57:46.481Z,101691.56
2023-05-23T08:00:52.484Z,101690.16
2023-05-23T08:03:56.688Z,101688.47
2023-05-23T08:07:05.647Z,101702.44
2023-05-23T08:10:11.936Z,101697.88
2023-05-23T08:13:16.601Z,101707.00
2023-05-23T08:16:20.441Z,101724.47
2023-05-23T08:19:24.208Z,101726.38
2023-05-23T08:22:27.970Z,101728.16
2023-05-23T08:25:33.283Z,101739.78
2023-05-23T08:28:36.884Z,101741.56
2023-05-23T08:31:40.488Z,101747.72
2023-05-23T08:34:44.296Z,101754.56
2023-05-23T08:37:48.182Z,101745.03
2023-05-23T08:40:53.580Z,101754.63
2023-05-23T08:43:58.154Z,101742.28
2023-05-23T08:47:06.661Z,101744.84
2023-05-23T08:50:14.666Z,101746.47
2023-05-23T08:53:20.520Z,101757.81
2023-05-23T08:56:28.627Z,101759.59
2023-05-23T08:59:34.827Z,101766.66
2023-05-23T09:02:39.407Z,101762.41
2023-05-23T09:05:43.999Z,101787.84
2023-05-23T09:08:47.848Z,101774.56
2023-05-23T09:11:54.613Z,101776.25
2023-05-23T09:14:58.749Z,101783.09
2023-05-23T09:18:03.406Z,101791.84
2023-05-23T09:21:09.178Z,101791.84
2023-05-23T09:24:13.378Z,101792.91
2023-05-23T09:27:18.385Z,101802.28
2023-05-23T09:30:21.979Z,101811.78
2023-05-23T09:33:30.885Z,101819.72
2023-05-23T09:36:36.681Z,101840.94
2023-05-23T09:39:40.390Z,101841.09
2023-05-23T09:42:47.738Z,101831.47
2023-05-23T09:45:51.412Z,101836.50
2023-05-23T09:48:56.219Z,101830.09
2023-05-23T09:52:00.868Z,101840.75
2023-05-23T09:55:04.969Z,101838.31
2023-05-23T09:58:11.190Z,101839.63
2023-05-23T10:01:16.020Z,101860.13
2023-05-23T10:04:24.410Z,101861.03
2023-05-23T10:07:29.879Z,101856.56
2023-05-23T10:10:34.353Z,101864.22
2023-05-23T10:13:42.625Z,101846.13
2023-05-23T10:17:00.439Z,101857.41
2023-05-23T10:20:12.581Z,101859.38
2023-05-23T10:23:18.053Z,101848.78
2023-05-23T10:26:23.027Z,101847.91
2023-05-23T10:29:29.666Z,101857.41
2023-05-23T10:32:34.716Z,101858.13
2023-05-23T10:35:59.991Z,101861.00
2023-05-23T10:39:17.673Z,101859.22
2023-05-23T10:42:35.257Z,101858.19
2023-05-23T10:45:44.467Z,101874.94
2023-05-23T10:48:48.903Z,101877.47
2023-05-23T10:51:53.227Z,101889.28
2023-05-23T10:54:57.060Z,101881.56
2023-05-23T10:58:12.978Z,101881.63
2023-05-23T11:01:20.011Z,101895.59
2023-05-23T11:04:28.159Z,101890.28
2023-05-23T11:07:33.535Z,101885.38
2023-05-23T11:11:00.665Z,101887.56
2023-05-23T11:14:04.249Z,101891.22
2023-05-23T11:17:19.721Z,101893.16
2023-05-23T11:20:28.339Z,101898.72
2023-05-23T11:23:42.649Z,101905.09
2023-05-23T11:26:55.456Z,101903.03
2023-05-23T11:30:02.037Z,101918.69
2023-05-23T11:33:13.841Z,101914.00
2023-05-23T11:36:17.470Z,101907.06
2023-05-23T11:39:21.668Z,101922.94
2023-05-23T11:42:25.750Z,101913.41
2023-05-23T11:45:32.364Z,101933.38
2023-05-23T11:48:37.401Z,101926.16
2023-05-23T11:51:41.212Z,101936.59
2023-05-23T11:54:45.219Z,101938.44
2023-05-23T11:57:49.597Z,101938.66
2023-05-23T12:00:55.202Z,101927.38
2023-05-23T12:04:01.050Z,101929.69
2023-05-23T12:07:08.466Z,101938.97
2023-05-23T12:10:12.635Z,101937.25
2023-05-23T12:13:16.389Z,101930.78
2023-05-23T12:16:20.067Z,101921.25
2023-05-23T12:19:25.269Z,101925.19
2023-05-23T12:22:30.119Z,101931.47
2023-05-23T12:25:42.047Z,101941.78
2023-05-23T12:28:47.270Z,101946.97
2023-05-23T12:31:52.724Z,101940.50
2023-05-23T12:34:58.089Z,101934.91
2023-05-23T12:38:01.921Z,101947.44
2023-05-23T12:41:13.520Z,101962.28
2023-05-23T12:44:17.964Z,101953.44
2023-05-23T12:47:21.990Z,101950.09
2023-05-23T12:50:27.500Z,101960.56
2023-05-23T12:53:31.564Z,101962.28
2023-05-23T12:56:35.241Z,101969.44
2023-05-23T12:59:38.802Z,101967.25
2023-05-23T13:02:42.777Z,101975.72
2023-05-23T13:05:47.778Z,101971.56
2023-05-23T13:08:51.619Z,101972.03
2023-05-23T13:11:55.826Z,101988.81
2023-05-23T13:14:59.618Z,101975.81
2023-05-23T13:18:03.369Z,101970.28
2023-05-23T13:21:09.397Z,101985.59
2023-05-23T13:24:12.866Z,101986.28
2023-05-23T13:27:16.434Z,101979.94
2023-05-23T13:30:20.468Z,101976.75
2023-05-23T13:33:24.314Z,101985.00
2023-05-23T13:36:29.563Z,101982.38
2023-05-23T13:39:33.317Z,101999.94
2023-05-23T13:42:36.921Z,101977.72
2023-05-23T13:45:40.814Z,101984.88
2023-05-23T13:48:44.680Z,101991.84
2023-05-23T13:51:49.991Z,101989.44
2023-05-23T13:54:53.712Z,102000.94
2023-05-23T13:57:57.392Z,101999.75
2023-05-23T14:01:01.072Z,101994.41
2023-05-23T14:04:06.853Z,102000.13
2023-05-23T14:07:12.346Z,102010.88
2023-05-23T14:10:17.498Z,102009.63
2023-05-23T14:13:23.166Z,102003.03
2023-05-23T14:16:27.561Z,102006.03
2023-05-23T14:19:31.551Z,102013.06
2023-05-23T14:22:36.846Z,102006.09
2023-05-23T14:25:40.848Z,102014.38
2023-05-23T14:28:44.635Z,102023.00
2023-05-23T14:31:48.229Z,102017.41
2023-05-23T14:34:51.962Z,102016.47
2023-05-23T14:37:56.889Z,102020.16
2023-05-23T14:41:00.456Z,102013.03
2023-05-23T14:44:05.128Z,102023.34
2023-05-23T14:47:08.789Z,102030.31
2023-05-23T14:50:13.110Z,102016.59
2023-05-23T14:53:21.897Z,102020.59
2023-05-23T14:56:27.319Z,102038.97
2023-05-23T14:59:31.935Z,102040.88
2023-05-23T15:02:35.554Z,102029.28
2023-05-23T15:05:39.276Z,102038.56
2023-05-23T15:08:44.262Z,102035.25
2023-05-23T15:11:49.420Z,102042.47
2023-05-23T15:14:52.993Z,102039.59
2023-05-23T15:17:56.644Z,102048.84
2023-05-23T15:21:00.406Z,102055.53
2023-05-23T15:24:05.752Z,102057.13
2023-05-23T15:27:20.324Z,102057.50
2023-05-23T15:30:25.075Z,102056.22
2023-05-23T15:33:28.599Z,102053.00
2023-05-23T15:36:32.417Z,102063.03
2023-05-23T15:39:37.257Z,102070.41
2023-05-23T15:42:40.800Z,102060.09
2023-05-23T15:45:44.496Z,102063.94
2023-05-23T15:48:48.147Z,102067.59
2023-05-23T15:51:52.606Z,102059.44
2023-05-23T15:54:58.186Z,102059.66
2023-05-23T15:58:01.853Z,102058.66
2023-05-23T16:01:06.521Z,102061.63
2023-05-23T16:04:11.730Z,102060.72
2023-05-23T16:07:18.188Z,102061.91
2023-05-23T16:10:24.550Z,102069.06
2023-05-23T16:13:28.196Z,102066.94
2023-05-23T16:16:31.793Z,102073.88
2023-05-23T16:19:35.625Z,102075.22
2023-05-23T16:22:39.337Z,102073.63
2023-05-23T16:25:44.369Z,102061.50
2023-05-23T16:28:48.008Z,102064.13
2023-05-23T16:31:51.829Z,102061.09
2023-05-23T16:34:55.572Z,102065.44
2023-05-23T16:37:59.177Z,102065.59
2023-05-23T16:41:04.322Z,102066.25
2023-05-23T16:44:07.987Z,102070.63
2023-05-23T16:47:11.608Z,102081.66
2023-05-23T16:50:15.311Z,102073.91
2023-05-23T16:53:18.900Z,102078.66
2023-05-23T16:56:23.809Z,102081.19
2023-05-23T16:59:27.462Z,102075.06
2023-05-23T17:02:31.179Z,102083.19
2023-05-23T17:05:35.140Z,102079.81
2023-05-23T17:08:38.702Z,102087.75
2023-05-23T17:11:43.592Z,102089.47
2023-05-23T17:14:48.980Z,102087.63
2023-05-23T17:17:52.579Z,102083.63
2023-05-23T17:20:56.137Z,102073.31
2023-05-23T17:23:59.821Z,102080.81
2023-05-23T17:27:05.387Z,102069.88
2023-05-23T17:30:13.161Z,102095.50
2023-05-23T17:33:16.769Z,102082.44
2023-05-23T17:36:20.782Z,102093.97
2023-05-23T17:39:24.373Z,102088.16
2023-05-23T17:42:29.279Z,102098.69
2023-05-23T17:45:32.853Z,102105.69
2023-05-23T17:48:47.065Z,102110.19
2023-05-23T17:51:51.778Z,102109.47
2023-05-23T17:54:55.899Z,102108.75
2023-05-23T17:58:01.237Z,102118.28
2023-05-23T18:01:04.947Z,102123.53
2023-05-23T18:04:09.284Z,102120.91
2023-05-23T18:07:14.038Z,102116.69
2023-05-23T18:10:17.969Z,102130.72
2023-05-23T18:13:23.069Z,102129.91
2023-05-23T18:16:26.709Z,102125.53
2023-05-23T18:19:31.271Z,102134.47
2023-05-23T18:22:34.897Z,102131.13
2023-05-23T18:25:38.460Z,102138.13
2023-05-23T18:28:43.526Z,102141.66
2023-05-23T18:31:48.421Z,102145.31
2023-05-23T18:34:52.176Z,102142.56
2023-05-23T18:37:56.071Z,102144.41
2023-05-23T18:40:59.773Z,102152.28
2023-05-23T18:44:06.128Z,102148.72
2023-05-23T18:47:09.787Z,102151.38
2023-05-23T18:50:14.559Z,102154.03
2023-05-23T18:53:18.188Z,102154.03
2023-05-23T18:56:23.137Z,102155.81
2023-05-23T18:59:28.595Z,102154.94
2023-05-23T19:02:32.324Z,102155.03
2023-05-23T19:05:36.720Z,102155.88
2023-05-23T19:08:40.317Z,102161.25
2023-05-23T19:11:43.925Z,102163.06
2023-05-23T19:14:49.052Z,102158.72
2023-05-23T19:17:52.834Z,102161.38
2023-05-23T19:20:56.581Z,102159.69
2023-05-23T19:24:00.135Z,102158.75
2023-05-23T19:27:04.790Z,102164.03
2023-05-23T19:30:11.789Z,102168.47
2023-05-23T19:33:15.885Z,102163.28
2023-05-23T19:36:19.476Z,102165.84
2023-05-23T19:39:23.237Z,102162.50
2023-05-23T19:42:27.048Z,102166.91
2023-05-23T19:45:32.112Z,102160.84
2023-05-23T19:48:35.652Z,102176.59
2023-05-23T19:51:39.301Z,102167.09
2023-05-23T19:54:42.818Z,102177.56
2023-05-23T19:57:46.986Z,102172.28
2023-05-23T20:00:52.561Z,102169.75
2023-05-23T20:03:56.468Z,102173.28
2023-05-23T20:07:00.916Z,102173.28
2023-05-23T20:10:05.082Z,102179.41
2023-05-23T20:13:08.580Z,102186.44
2023-05-23T20:16:14.105Z,102185.56
2023-05-23T20:19:17.815Z,102196.09
2023-05-23T20:22:21.438Z,102193.47
2023-05-23T20:25:28.732Z,102193.50
2023-05-23T20:28:32.841Z,102195.25
2023-05-23T20:31:38.070Z,102189.16
2023-05-23T20:34:42.208Z,102181.34
2023-05-23T20:37:45.881Z,102185.69
2023-05-23T20:40:51.576Z,102187.47
2023-05-23T20:43:55.877Z,102191.81
2023-05-23T20:47:00.888Z,102190.09
2023-05-23T20:50:04.682Z,102195.34
2023-05-23T20:53:08.722Z,102193.59
2023-05-23T20:56:12.475Z,102188.38
2023-05-23T20:59:16.552Z,102192.75
2023-05-23T21:02:21.631Z,102192.75
2023-05-23T21:05:25.292Z,102191.88
2023-05-23T21:08:28.872Z,102189.25
2023-05-23T21:11:32.434Z,102202.34
2023-05-23T21:14:36.223Z,102189.25
2023-05-23T21:17:41.611Z,102183.19
2023-05-23T21:20:45.473Z,102196.22
2023-05-23T21:23:49.019Z,102197.97
2023-05-23T21:26:52.690Z,102208.44
2023-05-23T21:29:57.368Z,102195.38
2023-05-23T21:33:02.475Z,102195.38
2023-05-23T21:36:06.225Z,102191.00
2023-05-23T21:39:09.743Z,102181.44
2023-05-23T21:42:13.362Z,102181.41
2023-05-23T21:45:16.904Z,102174.41
2023-05-23T21:48:21.766Z,102175.34
2023-05-23T21:51:25.657Z,102177.97
2023-05-23T21:54:29.473Z,102175.34
2023-05-23T21:57:33.054Z,102170.09
2023-05-23T22:00:36.546Z,102176.22
2023-05-23T22:03:41.534Z,102167.50
2023-05-23T22:06:45.167Z,102169.22
2023-05-23T22:09:51.116Z,102175.34
2023-05-23T22:12:54.653Z,102175.34
2023-05-23T22:15:58.146Z,102189.31
2023-05-23T22:19:05.528Z,102181.44
2023-05-23T22:22:09.891Z,102178.88
2023-05-23T22:25:13.629Z,102179.75
2023-05-23T22:28:17.252Z,102183.22
2023-05-23T22:31:21.580Z,102182.34
2023-05-23T22:34:26.560Z,102175.38
2023-05-23T22:37:30.068Z,102172.72
2023-05-23T22:40:33.617Z,102177.09
2023-05-23T22:43:37.315Z,102183.19
2023-05-23T22:46:43.802Z,102179.69
2023-05-23T22:49:48.894Z,102181.44
2023-05-23T22:52:52.505Z,102177.94
2023-05-23T22:55:56.154Z,102178.84
2023-05-23T22:58:59.669Z,102191.88
2023-05-23T23:02:04.043Z,102192.78
2023-05-23T23:05:12.111Z,102180.56
2023-05-23T23:08:16.318Z,102180.59
2023-05-23T23:11:19.905Z,102175.38
2023-05-23T23:14:23.469Z,102174.50
2023-05-23T23:17:27.048Z,102181.47
2023-05-23T23:20:32.150Z,102174.53
2023-05-23T23:23:36.678Z,102172.75
2023-05-23T23:26:40.236Z,102171.03
2023-05-23T23:29:43.722Z,102167.53
2023-05-23T23:32:47.322Z,102168.44
2023-05-23T23:35:52.500Z,102171.91
2023-05-23T23:38:56.079Z,102168.44
2023-05-23T23:41:59.559Z,102167.53
2023-05-23T23:45:03.401Z,102162.34
2023-05-23T23:48:07.013Z,102164.94
2023-05-23T23:51:12.934Z,102162.31
2023-05-23T23:54:16.555Z,102164.06
2023-05-23T23:57:20.051Z,102168.44
